sensor_id;sensor_type;location;lat;lon;timestamp;pressure;altitude;pressure_sealevel;temperature
67829;BMP280;54626;45.436;10.942;2024-03-08T00:00:44;100644.00;;;12.01
67829;BMP280;54626;45.436;10.942;2024-03-08T00:03:13;100650.81;;;12.00
67829;BMP280;54626;45.436;10.942;2024-03-08T00:05:40;100646.19;;;12.02
67829;BMP280;54626;45.436;10.942;2024-03-08T00:08:07;100645.59;;;11.96
67829;BMP280;54626;45.436;10.942;2024-03-08T00:10:36;100643.78;;;11.99
67829;BMP280;54626;45.436;10.942;2024-03-08T00:13:03;100641.91;;;11.94
67829;BMP280;54626;45.436;10.942;2024-03-08T00:15:30;100639.53;;;11.98
67829;BMP280;54626;45.436;10.942;2024-03-08T00:17:58;100641.91;;;11.94
67829;BMP280;54626;45.436;10.942;2024-03-08T00:20:25;100640.22;;;11.91
67829;BMP280;54626;45.436;10.942;2024-03-08T00:22:52;100642.97;;;11.91
67829;BMP280;54626;45.436;10.942;2024-03-08T00:25:18;100643.19;;;11.93
67829;BMP280;54626;45.436;10.942;2024-03-08T00:27:44;100639.31;;;11.96
67829;BMP280;54626;45.436;10.942;2024-03-08T00:30:11;100642.63;;;11.94
67829;BMP280;54626;45.436;10.942;2024-03-08T00:32:39;100640.22;;;11.91
67829;BMP280;54626;45.436;10.942;2024-03-08T00:35:06;100635.94;;;11.90
67829;BMP280;54626;45.436;10.942;2024-03-08T00:37:34;100634.06;;;11.85
67829;BMP280;54626;45.436;10.942;2024-03-08T00:40:03;100636.09;;;11.84
67829;BMP280;54626;45.436;10.942;2024-03-08T00:42:31;100633.69;;;11.88
67829;BMP280;54626;45.436;10.942;2024-03-08T00:44:57;100630.03;;;11.86
67829;BMP280;54626;45.436;10.942;2024-03-08T00:47:24;100629.81;;;11.84
67829;BMP280;54626;45.436;10.942;2024-03-08T00:49:51;100635.63;;;11.73
67829;BMP280;54626;45.436;10.942;2024-03-08T00:52:17;100634.63;;;11.63
67829;BMP280;54626;45.436;10.942;2024-03-08T00:54:44;100630.09;;;11.73
67829;BMP280;54626;45.436;10.942;2024-03-08T00:57:11;100632.28;;;11.74
67829;BMP280;54626;45.436;10.942;2024-03-08T00:59:38;100625.69;;;11.77
67829;BMP280;54626;45.436;10.942;2024-03-08T01:02:04;100634.34;;;11.74
67829;BMP280;54626;45.436;10.942;2024-03-08T01:04:32;100629.00;;;11.76
67829;BMP280;54626;45.436;10.942;2024-03-08T01:06:59;100628.91;;;11.68
67829;BMP280;54626;45.436;10.942;2024-03-08T01:09:26;100625.63;;;11.70
67829;BMP280;54626;45.436;10.942;2024-03-08T01:11:54;100625.25;;;11.66
67829;BMP280;54626;45.436;10.942;2024-03-08T01:14:22;100613.06;;;11.69
67829;BMP280;54626;45.436;10.942;2024-03-08T01:16:49;100606.25;;;11.70
67829;BMP280;54626;45.436;10.942;2024-03-08T01:19:16;100609.44;;;11.74
67829;BMP280;54626;45.436;10.942;2024-03-08T01:21:42;100604.97;;;11.71
67829;BMP280;54626;45.436;10.942;2024-03-08T01:24:09;100616.97;;;11.73
67829;BMP280;54626;45.436;10.942;2024-03-08T01:26:36;100609.53;;;11.68
67829;BMP280;54626;45.436;10.942;2024-03-08T01:29:03;100607.34;;;11.67
67829;BMP280;54626;45.436;10.942;2024-03-08T01:31:30;100604.34;;;11.65
67829;BMP280;54626;45.436;10.942;2024-03-08T01:33:57;100595.44;;;11.59
67829;BMP280;54626;45.436;10.942;2024-03-08T01:36:24;100596.72;;;11.58
67829;BMP280;54626;45.436;10.942;2024-03-08T01:38:51;100596.19;;;11.59
67829;BMP280;54626;45.436;10.942;2024-03-08T01:41:19;100596.19;;;11.59
67829;BMP280;54626;45.436;10.942;2024-03-08T01:43:46;100602.06;;;11.56
67829;BMP280;54626;45.436;10.942;2024-03-08T01:46:15;100598.00;;;11.57
67829;BMP280;54626;45.436;10.942;2024-03-08T01:48:44;100602.47;;;11.60
67829;BMP280;54626;45.436;10.942;2024-03-08T01:51:12;100598.22;;;11.59
67829;BMP280;54626;45.436;10.942;2024-03-08T01:53:42;100600.56;;;11.55
67829;BMP280;54626;45.436;10.942;2024-03-08T01:56:12;100599.28;;;11.56
67829;BMP280;54626;45.436;10.942;2024-03-08T01:58:43;100599.50;;;11.58
67829;BMP280;54626;45.436;10.942;2024-03-08T02:01:13;100596.72;;;11.58
67829;BMP280;54626;45.436;10.942;2024-03-08T02:03:41;100588.03;;;11.61
67829;BMP280;54626;45.436;10.942;2024-03-08T02:06:14;100582.94;;;11.65
67829;BMP280;54626;45.436;10.942;2024-03-08T02:08:44;100589.53;;;11.62
67829;BMP280;54626;45.436;10.942;2024-03-08T02:11:12;100580.84;;;11.58
67829;BMP280;54626;45.436;10.942;2024-03-08T02:13:39;100583.78;;;11.60
67829;BMP280;54626;45.436;10.942;2024-03-08T02:16:05;100586.03;;;11.62
67829;BMP280;54626;45.436;10.942;2024-03-08T02:18:35;100576.97;;;11.61
67829;BMP280;54626;45.436;10.942;2024-03-08T02:21:04;100574.78;;;11.60
67829;BMP280;54626;45.436;10.942;2024-03-08T02:23:31;100580.50;;;11.62
67829;BMP280;54626;45.436;10.942;2024-03-08T02:25:58;100583.78;;;11.60
67829;BMP280;54626;45.436;10.942;2024-03-08T02:28:25;100583.13;;;11.47
67829;BMP280;54626;45.436;10.942;2024-03-08T02:30:52;100581.09;;;11.47
67829;BMP280;54626;45.436;10.942;2024-03-08T02:33:23;100582.97;;;11.45
67829;BMP280;54626;45.436;10.942;2024-03-08T02:35:51;100581.97;;;11.43
67829;BMP280;54626;45.436;10.942;2024-03-08T02:38:20;100580.50;;;11.42
67829;BMP280;54626;45.436;10.942;2024-03-08T02:40:50;100577.72;;;11.42
67829;BMP280;54626;45.436;10.942;2024-03-08T02:43:19;100571.38;;;11.34
67829;BMP280;54626;45.436;10.942;2024-03-08T02:45:46;100578.00;;;11.31
67829;BMP280;54626;45.436;10.942;2024-03-08T02:48:12;100573.31;;;11.26
67829;BMP280;54626;45.436;10.942;2024-03-08T02:50:39;100575.50;;;11.20
67829;BMP280;54626;45.436;10.942;2024-03-08T02:53:07;100570.03;;;11.27
67829;BMP280;54626;45.436;10.942;2024-03-08T02:55:34;100576.31;;;11.28
67829;BMP280;54626;45.436;10.942;2024-03-08T02:58:02;100574.38;;;11.15
67829;BMP280;54626;45.436;10.942;2024-03-08T03:00:30;100570.16;;;11.22
67829;BMP280;54626;45.436;10.942;2024-03-08T03:02:57;100569.50;;;11.08
67829;BMP280;54626;45.436;10.942;2024-03-08T03:05:24;100564.97;;;11.18
67829;BMP280;54626;45.436;10.942;2024-03-08T03:07:51;100564.16;;;11.10
67829;BMP280;54626;45.436;10.942;2024-03-08T03:10:18;100564.03;;;11.16
67829;BMP280;54626;45.436;10.942;2024-03-08T03:12:45;100560.16;;;10.98
67829;BMP280;54626;45.436;10.942;2024-03-08T03:15:12;100560.59;;;11.23
67829;BMP280;54626;45.436;10.942;2024-03-08T03:17:41;100569.00;;;11.17
67829;BMP280;54626;45.436;10.942;2024-03-08T03:20:08;100569.44;;;11.21
67829;BMP280;54626;45.436;10.942;2024-03-08T03:22:40;100568.06;;;11.15
67829;BMP280;54626;45.436;10.942;2024-03-08T03:25:10;100564.09;;;11.23
67829;BMP280;54626;45.436;10.942;2024-03-08T03:27:37;100568.81;;;11.15
67829;BMP280;54626;45.436;10.942;2024-03-08T03:30:05;100565.41;;;11.09
67829;BMP280;54626;45.436;10.942;2024-03-08T03:32:50;100573.00;;;11.09
67829;BMP280;54626;45.436;10.942;2024-03-08T03:35:18;100568.72;;;11.08
67829;BMP280;54626;45.436;10.942;2024-03-08T03:37:47;100576.56;;;11.17
67829;BMP280;54626;45.436;10.942;2024-03-08T03:40:28;100573.00;;;11.09
67829;BMP280;54626;45.436;10.942;2024-03-08T03:42:55;100562.19;;;11.18
67829;BMP280;54626;45.436;10.942;2024-03-08T03:45:23;100568.53;;;11.06
67829;BMP280;54626;45.436;10.942;2024-03-08T03:47:50;100560.81;;;10.91
67829;BMP280;54626;45.436;10.942;2024-03-08T03:50:20;100568.09;;;11.02
67829;BMP280;54626;45.436;10.942;2024-03-08T03:52:47;100558.00;;;11.04
67829;BMP280;54626;45.436;10.942;2024-03-08T03:55:17;100565.69;;;10.98
67829;BMP280;54626;45.436;10.942;2024-03-08T03:57:45;100570.56;;;11.05
67829;BMP280;54626;45.436;10.942;2024-03-08T04:00:12;100566.41;;;10.99
67829;BMP280;54626;45.436;10.942;2024-03-08T04:02:39;100554.09;;;10.87
67829;BMP280;54626;45.436;10.942;2024-03-08T04:05:07;100557.84;;;10.89
67829;BMP280;54626;45.436;10.942;2024-03-08T04:07:34;100560.44;;;10.74
67829;BMP280;54626;45.436;10.942;2024-03-08T04:10:02;100559.00;;;10.81
67829;BMP280;54626;45.436;10.942;2024-03-08T04:12:29;100555.59;;;10.88
67829;BMP280;54626;45.436;10.942;2024-03-08T04:14:56;100555.59;;;10.88
67829;BMP280;54626;45.436;10.942;2024-03-08T04:17:25;100558.91;;;10.86
67829;BMP280;54626;45.436;10.942;2024-03-08T04:19:51;100558.06;;;10.91
67829;BMP280;54626;45.436;10.942;2024-03-08T04:22:18;100553.88;;;10.98
67829;BMP280;54626;45.436;10.942;2024-03-08T04:24:50;100550.88;;;10.96
67829;BMP280;54626;45.436;10.942;2024-03-08T04:27:17;100551.25;;;10.92
67829;BMP280;54626;45.436;10.942;2024-03-08T04:29:43;100543.13;;;10.94
67829;BMP280;54626;45.436;10.942;2024-03-08T04:32:11;100552.31;;;10.89
67829;BMP280;54626;45.436;10.942;2024-03-08T04:34:39;100546.22;;;10.91
67829;BMP280;54626;45.436;10.942;2024-03-08T04:37:11;100550.81;;;10.88
67829;BMP280;54626;45.436;10.942;2024-03-08T04:39:39;100554.19;;;10.94
67829;BMP280;54626;45.436;10.942;2024-03-08T04:42:06;100558.34;;;10.88
67829;BMP280;54626;45.436;10.942;2024-03-08T04:44:36;100550.81;;;10.88
67829;BMP280;54626;45.436;10.942;2024-03-08T04:47:04;100548.56;;;10.87
67829;BMP280;54626;45.436;10.942;2024-03-08T04:49:32;100548.78;;;10.89
67829;BMP280;54626;45.436;10.942;2024-03-08T04:52:04;100552.88;;;10.75
67829;BMP280;54626;45.436;10.942;2024-03-08T04:54:35;100549.75;;;10.91
67829;BMP280;54626;45.436;10.942;2024-03-08T04:57:01;100557.50;;;10.93
67829;BMP280;54626;45.436;10.942;2024-03-08T04:59:31;100563.59;;;10.91
67829;BMP280;54626;45.436;10.942;2024-03-08T05:01:57;100557.84;;;10.89
67829;BMP280;54626;45.436;10.942;2024-03-08T05:04:24;100560.19;;;10.85
67829;BMP280;54626;45.436;10.942;2024-03-08T05:06:50;100558.78;;;10.92
67829;BMP280;54626;45.436;10.942;2024-03-08T05:09:17;100560.50;;;10.82
67829;BMP280;54626;45.436;10.942;2024-03-08T05:11:45;100551.25;;;10.79
67829;BMP280;54626;45.436;10.942;2024-03-08T05:14:14;100559.69;;;10.74
67829;BMP280;54626;45.436;10.942;2024-03-08T05:16:44;100559.84;;;10.89
67829;BMP280;54626;45.436;10.942;2024-03-08T05:19:17;100562.22;;;10.85
67829;BMP280;54626;45.436;10.942;2024-03-08T05:21:48;100555.13;;;10.76
67829;BMP280;54626;45.436;10.942;2024-03-08T05:24:15;100565.22;;;10.74
67829;BMP280;54626;45.436;10.942;2024-03-08T05:26:43;100569.88;;;10.79
67829;BMP280;54626;45.436;10.942;2024-03-08T05:29:09;100571.34;;;10.80
67829;BMP280;54626;45.436;10.942;2024-03-08T05:31:38;100581.06;;;10.73
67829;BMP280;54626;45.436;10.942;2024-03-08T05:34:09;100579.03;;;10.74
67829;BMP280;54626;45.436;10.942;2024-03-08T05:36:36;100573.72;;;10.76
67829;BMP280;54626;45.436;10.942;2024-03-08T05:39:03;100580.53;;;10.75
67829;BMP280;54626;45.436;10.942;2024-03-08T05:41:32;100577.75;;;10.75
67829;BMP280;54626;45.436;10.942;2024-03-08T05:43:59;100575.75;;;10.75
67829;BMP280;54626;45.436;10.942;2024-03-08T05:46:25;100585.53;;;10.76
67829;BMP280;54626;45.436;10.942;2024-03-08T05:48:52;100590.00;;;10.79
67829;BMP280;54626;45.436;10.942;2024-03-08T05:51:19;100583.22;;;10.68
67829;BMP280;54626;45.436;10.942;2024-03-08T05:53:47;100586.81;;;10.75
67829;BMP280;54626;45.436;10.942;2024-03-08T05:56:14;100590.53;;;10.78
67829;BMP280;54626;45.436;10.942;2024-03-08T05:58:41;100588.09;;;10.74
67829;BMP280;54626;45.436;10.942;2024-03-08T06:01:08;100580.97;;;10.66
67829;BMP280;54626;45.436;10.942;2024-03-08T06:03:37;100588.97;;;10.69
67829;BMP280;54626;45.436;10.942;2024-03-08T06:06:07;100580.53;;;10.75
67829;BMP280;54626;45.436;10.942;2024-03-08T06:08:34;100591.06;;;10.76
67829;BMP280;54626;45.436;10.942;2024-03-08T06:11:01;100591.06;;;10.76
67829;BMP280;54626;45.436;10.942;2024-03-08T06:13:29;100596.78;;;10.78
67829;BMP280;54626;45.436;10.942;2024-03-08T06:15:57;100597.44;;;10.71
67829;BMP280;54626;45.436;10.942;2024-03-08T06:18:24;100601.81;;;10.67
67829;BMP280;54626;45.436;10.942;2024-03-08T06:20:50;100602.78;;;10.69
67829;BMP280;54626;45.436;10.942;2024-03-08T06:23:19;100603.41;;;10.75
67829;BMP280;54626;45.436;10.942;2024-03-08T06:25:46;100606.47;;;10.72
67829;BMP280;54626;45.436;10.942;2024-03-08T06:28:12;100606.19;;;10.75
67829;BMP280;54626;45.436;10.942;2024-03-08T06:30:40;100600.88;;;10.77
67829;BMP280;54626;45.436;10.942;2024-03-08T06:33:07;100601.69;;;10.85
67829;BMP280;54626;45.436;10.942;2024-03-08T06:35:34;100602.63;;;10.88
67829;BMP280;54626;45.436;10.942;2024-03-08T06:38:04;100608.50;;;10.84
67829;BMP280;54626;45.436;10.942;2024-03-08T06:40:32;100609.03;;;10.83
67829;BMP280;54626;45.436;10.942;2024-03-08T06:42:58;100612.84;;;10.93
67829;BMP280;54626;45.436;10.942;2024-03-08T06:45:25;100604.06;;;11.02
67829;BMP280;54626;45.436;10.942;2024-03-08T06:47:52;100615.91;;;11.02
67829;BMP280;54626;45.436;10.942;2024-03-08T06:50:18;100620.03;;;11.09
67829;BMP280;54626;45.436;10.942;2024-03-08T06:52:45;100621.25;;;11.21
67829;BMP280;54626;45.436;10.942;2024-03-08T06:55:14;100617.44;;;11.24
67829;BMP280;54626;45.436;10.942;2024-03-08T06:57:40;100623.75;;;11.32
67829;BMP280;54626;45.436;10.942;2024-03-08T07:00:08;100618.97;;;11.32
67829;BMP280;54626;45.436;10.942;2024-03-08T07:02:40;100615.22;;;11.22
67829;BMP280;54626;45.436;10.942;2024-03-08T07:05:08;100621.94;;;11.14
67829;BMP280;54626;45.436;10.942;2024-03-08T07:07:37;100622.69;;;11.14
67829;BMP280;54626;45.436;10.942;2024-03-08T07:10:04;100620.31;;;11.18
67829;BMP280;54626;45.436;10.942;2024-03-08T07:12:30;100629.94;;;11.04
67829;BMP280;54626;45.436;10.942;2024-03-08T07:14:57;100624.84;;;11.08
67829;BMP280;54626;45.436;10.942;2024-03-08T07:17:23;100639.53;;;11.03
67829;BMP280;54626;45.436;10.942;2024-03-08T07:19:51;100626.84;;;11.08
67829;BMP280;54626;45.436;10.942;2024-03-08T07:22:17;100636.31;;;11.12
67829;BMP280;54626;45.436;10.942;2024-03-08T07:24:44;100629.41;;;11.06
67829;BMP280;54626;45.436;10.942;2024-03-08T07:27:36;100636.09;;;11.10
67829;BMP280;54626;45.436;10.942;2024-03-08T07:30:04;100630.69;;;11.05
67829;BMP280;54626;45.436;10.942;2024-03-08T07:32:34;100640.34;;;11.11
67829;BMP280;54626;45.436;10.942;2024-03-08T07:35:01;100634.41;;;11.07
67829;BMP280;54626;45.436;10.942;2024-03-08T07:37:28;100643.03;;;11.04
67829;BMP280;54626;45.436;10.942;2024-03-08T07:39:56;100643.59;;;10.89
67829;BMP280;54626;45.436;10.942;2024-03-08T07:42:24;100639.41;;;10.96
67829;BMP280;54626;45.436;10.942;2024-03-08T07:44:51;100635.81;;;11.01
67829;BMP280;54626;45.436;10.942;2024-03-08T07:47:19;100637.09;;;11.00
67829;BMP280;54626;45.436;10.942;2024-03-08T07:49:48;100640.22;;;10.83
67829;BMP280;54626;45.436;10.942;2024-03-08T07:52:15;100651.75;;;10.95
67829;BMP280;54626;45.436;10.942;2024-03-08T07:54:44;100651.97;;;10.97
67829;BMP280;54626;45.436;10.942;2024-03-08T07:57:10;100656.78;;;10.96
67829;BMP280;54626;45.436;10.942;2024-03-08T07:59:37;100651.25;;;10.96
67829;BMP280;54626;45.436;10.942;2024-03-08T08:02:03;100652.19;;;10.99
67829;BMP280;54626;45.436;10.942;2024-03-08T08:04:30;100655.72;;;10.99
67829;BMP280;54626;45.436;10.942;2024-03-08T08:06:57;100654.41;;;11.13
67829;BMP280;54626;45.436;10.942;2024-03-08T08:09:23;100654.41;;;11.13
67829;BMP280;54626;45.436;10.942;2024-03-08T08:11:55;100647.78;;;11.16
67829;BMP280;54626;45.436;10.942;2024-03-08T08:14:22;100649.84;;;11.03
67829;BMP280;54626;45.436;10.942;2024-03-08T08:16:48;100652.50;;;11.08
67829;BMP280;54626;45.436;10.942;2024-03-08T08:19:16;100644.88;;;11.01
67829;BMP280;54626;45.436;10.942;2024-03-08T08:21:43;100650.75;;;11.18
67829;BMP280;54626;45.436;10.942;2024-03-08T08:24:09;100641.00;;;11.38
67829;BMP280;54626;45.436;10.942;2024-03-08T08:26:37;100647.28;;;11.38
67829;BMP280;54626;45.436;10.942;2024-03-08T08:29:07;100637.09;;;11.53
67829;BMP280;54626;45.436;10.942;2024-03-08T08:31:33;100639.13;;;11.73
67829;BMP280;54626;45.436;10.942;2024-03-08T08:34:00;100633.84;;;11.83
67829;BMP280;54626;45.436;10.942;2024-03-08T08:36:27;100638.44;;;12.01
67829;BMP280;54626;45.436;10.942;2024-03-08T08:38:56;100638.06;;;12.24
67829;BMP280;54626;45.436;10.942;2024-03-08T08:41:26;100634.41;;;12.37
67829;BMP280;54626;45.436;10.942;2024-03-08T08:43:53;100635.91;;;12.38
67829;BMP280;54626;45.436;10.942;2024-03-08T08:46:34;100637.47;;;12.54
67829;BMP280;54626;45.436;10.942;2024-03-08T08:49:05;100641.78;;;12.62
67829;BMP280;54626;45.436;10.942;2024-03-08T08:51:32;100630.09;;;12.56
67829;BMP280;54626;45.436;10.942;2024-03-08T08:54:02;100631.59;;;12.29
67829;BMP280;54626;45.436;10.942;2024-03-08T08:56:29;100623.53;;;12.39
67829;BMP280;54626;45.436;10.942;2024-03-08T08:58:55;100626.72;;;12.50
67829;BMP280;54626;45.436;10.942;2024-03-08T09:01:22;100613.28;;;12.54
67829;BMP280;54626;45.436;10.942;2024-03-08T09:03:49;100615.34;;;12.69
67829;BMP280;54626;45.436;10.942;2024-03-08T09:06:16;100615.97;;;12.75
67829;BMP280;54626;45.436;10.942;2024-03-08T09:08:44;100612.38;;;12.67
67829;BMP280;54626;45.436;10.942;2024-03-08T09:11:12;100615.13;;;12.59
67829;BMP280;54626;45.436;10.942;2024-03-08T09:13:39;100617.53;;;12.63
67829;BMP280;54626;45.436;10.942;2024-03-08T09:16:05;100620.47;;;13.00
67829;BMP280;54626;45.436;10.942;2024-03-08T09:18:33;100631.06;;;13.16
67829;BMP280;54626;45.436;10.942;2024-03-08T09:20:59;100628.81;;;13.15
67829;BMP280;54626;45.436;10.942;2024-03-08T09:23:26;100641.66;;;13.33
67829;BMP280;54626;45.436;10.942;2024-03-08T09:25:56;100639.97;;;13.30
67829;BMP280;54626;45.436;10.942;2024-03-08T09:28:24;100637.94;;;13.23
67829;BMP280;54626;45.436;10.942;2024-03-08T09:30:51;100631.28;;;13.18
67829;BMP280;54626;45.436;10.942;2024-03-08T09:33:25;100632.19;;;13.13
67829;BMP280;54626;45.436;10.942;2024-03-08T09:35:56;100635.50;;;13.27
67829;BMP280;54626;45.436;10.942;2024-03-08T09:38:26;100635.75;;;13.36
67829;BMP280;54626;45.436;10.942;2024-03-08T09:40:52;100645.34;;;13.28
67829;BMP280;54626;45.436;10.942;2024-03-08T09:43:19;100640.69;;;13.15
67829;BMP280;54626;45.436;10.942;2024-03-08T09:45:48;100644.19;;;13.08
67829;BMP280;54626;45.436;10.942;2024-03-08T09:48:17;100643.06;;;13.04
67829;BMP280;54626;45.436;10.942;2024-03-08T09:50:46;100644.19;;;13.08
67829;BMP280;54626;45.436;10.942;2024-03-08T09:53:12;100646.59;;;13.12
67829;BMP280;54626;45.436;10.942;2024-03-08T09:55:39;100642.53;;;13.05
67829;BMP280;54626;45.436;10.942;2024-03-08T09:58:12;100651.38;;;13.04
67829;BMP280;54626;45.436;10.942;2024-03-08T10:00:54;100648.09;;;13.13
67829;BMP280;54626;45.436;10.942;2024-03-08T10:03:23;100647.31;;;12.97
67829;BMP280;54626;45.436;10.942;2024-03-08T10:05:52;100647.38;;;13.12
67829;BMP280;54626;45.436;10.942;2024-03-08T10:08:20;100645.69;;;13.09
67829;BMP280;54626;45.436;10.942;2024-03-08T10:10:46;100648.84;;;13.21
67829;BMP280;54626;45.436;10.942;2024-03-08T10:13:13;100650.13;;;13.12
67829;BMP280;54626;45.436;10.942;2024-03-08T10:15:40;100645.69;;;13.17
67829;BMP280;54626;45.436;10.942;2024-03-08T10:18:07;100648.25;;;13.15
67829;BMP280;54626;45.436;10.942;2024-03-08T10:20:33;100653.22;;;13.01
67829;BMP280;54626;45.436;10.942;2024-03-08T10:23:00;100650.84;;;13.05
67829;BMP280;54626;45.436;10.942;2024-03-08T10:25:37;100648.31;;;12.72
67829;BMP280;54626;45.436;10.942;2024-03-08T10:28:04;100649.84;;;12.81
67829;BMP280;54626;45.436;10.942;2024-03-08T10:30:31;100645.59;;;12.87
67829;BMP280;54626;45.436;10.942;2024-03-08T10:32:58;100653.41;;;12.89
67829;BMP280;54626;45.436;10.942;2024-03-08T10:35:25;100647.84;;;12.96
67829;BMP280;54626;45.436;10.942;2024-03-08T10:37:56;100651.00;;;13.00
67829;BMP280;54626;45.436;10.942;2024-03-08T10:40:27;100654.22;;;13.11
67829;BMP280;54626;45.436;10.942;2024-03-08T10:42:59;100662.50;;;13.04
67829;BMP280;54626;45.436;10.942;2024-03-08T10:45:39;100668.03;;;13.04
67829;BMP280;54626;45.436;10.942;2024-03-08T10:50:49;100662.41;;;13.32
67829;BMP280;54626;45.436;10.942;2024-03-08T10:53:19;100658.69;;;13.37
67829;BMP280;54626;45.436;10.942;2024-03-08T10:55:49;100659.84;;;13.56
67829;BMP280;54626;45.436;10.942;2024-03-08T10:58:21;100667.97;;;13.76
67829;BMP280;54626;45.436;10.942;2024-03-08T11:00:48;100665.41;;;13.93
67829;BMP280;54626;45.436;10.942;2024-03-08T11:09:00;100656.31;;;13.85
67829;BMP280;54626;45.436;10.942;2024-03-08T11:11:28;100662.97;;;14.12
67829;BMP280;54626;45.436;10.942;2024-03-08T11:14:01;100650.69;;;14.37
67829;BMP280;54626;45.436;10.942;2024-03-08T11:18:59;100654.75;;;14.91
67829;BMP280;54626;45.436;10.942;2024-03-08T11:21:32;100639.50;;;14.92
67829;BMP280;54626;45.436;10.942;2024-03-08T11:24:10;100653.38;;;15.06
67829;BMP280;54626;45.436;10.942;2024-03-08T11:26:40;100641.72;;;14.61
67829;BMP280;54626;45.436;10.942;2024-03-08T11:32:10;100644.31;;;14.59
67829;BMP280;54626;45.436;10.942;2024-03-08T11:34:42;100643.53;;;14.66
67829;BMP280;54626;45.436;10.942;2024-03-08T11:37:16;100640.47;;;14.40
67829;BMP280;54626;45.436;10.942;2024-03-08T11:39:54;100646.03;;;14.40
67829;BMP280;54626;45.436;10.942;2024-03-08T11:42:29;100642.19;;;14.28
67829;BMP280;54626;45.436;10.942;2024-03-08T11:44:55;100633.19;;;14.59
67829;BMP280;54626;45.436;10.942;2024-03-08T11:47:22;100631.22;;;14.77
67829;BMP280;54626;45.436;10.942;2024-03-08T11:49:49;100628.09;;;15.04
67829;BMP280;54626;45.436;10.942;2024-03-08T11:52:17;100622.19;;;15.32
67829;BMP280;54626;45.436;10.942;2024-03-08T11:54:51;100612.09;;;15.12
67829;BMP280;54626;45.436;10.942;2024-03-08T11:57:23;100608.66;;;15.29
67829;BMP280;54626;45.436;10.942;2024-03-08T11:59:53;100613.66;;;15.30
67829;BMP280;54626;45.436;10.942;2024-03-08T12:02:23;100601.63;;;15.69
67829;BMP280;54626;45.436;10.942;2024-03-08T12:05:00;100606.31;;;15.42
67829;BMP280;54626;45.436;10.942;2024-03-08T12:07:29;100604.22;;;15.50
67829;BMP280;54626;45.436;10.942;2024-03-08T12:10:18;100607.84;;;15.11
67829;BMP280;54626;45.436;10.942;2024-03-08T12:12:52;100608.44;;;15.02
67829;BMP280;54626;45.436;10.942;2024-03-08T12:15:21;100603.53;;;14.86
67829;BMP280;54626;45.436;10.942;2024-03-08T12:17:52;100601.25;;;14.60
67829;BMP280;54626;45.436;10.942;2024-03-08T12:20:20;100591.47;;;15.40
67829;BMP280;54626;45.436;10.942;2024-03-08T12:22:52;100575.13;;;15.61
67829;BMP280;54626;45.436;10.942;2024-03-08T12:25:20;100578.72;;;15.54
67829;BMP280;54626;45.436;10.942;2024-03-08T12:27:47;100579.56;;;15.80
67829;BMP280;54626;45.436;10.942;2024-03-08T12:30:20;100569.66;;;15.87
67829;BMP280;54626;45.436;10.942;2024-03-08T12:32:57;100581.69;;;16.06
67829;BMP280;54626;45.436;10.942;2024-03-08T12:35:26;100580.94;;;16.39
67829;BMP280;54626;45.436;10.942;2024-03-08T12:37:55;100578.16;;;16.66
67829;BMP280;54626;45.436;10.942;2024-03-08T12:40:28;100576.84;;;16.93
67829;BMP280;54626;45.436;10.942;2024-03-08T12:42:55;100559.50;;;16.42
67829;BMP280;54626;45.436;10.942;2024-03-08T12:45:23;100562.50;;;16.10
67829;BMP280;54626;45.436;10.942;2024-03-08T12:47:51;100568.63;;;15.58
67829;BMP280;54626;45.436;10.942;2024-03-08T12:50:18;100558.97;;;15.59
67829;BMP280;54626;45.436;10.942;2024-03-08T12:52:45;100571.25;;;15.39
67829;BMP280;54626;45.436;10.942;2024-03-08T12:55:11;100561.38;;;15.14
67829;BMP280;54626;45.436;10.942;2024-03-08T12:57:39;100560.72;;;15.30
67829;BMP280;54626;45.436;10.942;2024-03-08T13:00:06;100563.69;;;15.32
67829;BMP280;54626;45.436;10.942;2024-03-08T13:02:33;100556.03;;;15.74
67829;BMP280;54626;45.436;10.942;2024-03-08T13:04:59;100553.06;;;16.23
67829;BMP280;54626;45.436;10.942;2024-03-08T13:07:26;100558.41;;;16.54
67829;BMP280;54626;45.436;10.942;2024-03-08T13:09:53;100553.66;;;16.47
67829;BMP280;54626;45.436;10.942;2024-03-08T13:12:21;100553.44;;;15.93
67829;BMP280;54626;45.436;10.942;2024-03-08T13:14:47;100552.78;;;15.44
67829;BMP280;54626;45.436;10.942;2024-03-08T13:17:17;100557.38;;;15.24
67829;BMP280;54626;45.436;10.942;2024-03-08T13:19:44;100548.97;;;15.56
67829;BMP280;54626;45.436;10.942;2024-03-08T13:22:11;100541.78;;;15.87
67829;BMP280;54626;45.436;10.942;2024-03-08T13:24:43;100536.25;;;15.79
67829;BMP280;54626;45.436;10.942;2024-03-08T13:27:11;100529.81;;;15.36
67829;BMP280;54626;45.436;10.942;2024-03-08T13:29:48;100540.88;;;15.02
67829;BMP280;54626;45.436;10.942;2024-03-08T13:32:15;100539.34;;;15.25
67829;BMP280;54626;45.436;10.942;2024-03-08T13:34:43;100535.88;;;15.42
67829;BMP280;54626;45.436;10.942;2024-03-08T13:37:11;100541.13;;;15.13
67829;BMP280;54626;45.436;10.942;2024-03-08T13:39:38;100530.56;;;14.88
67829;BMP280;54626;45.436;10.942;2024-03-08T13:42:07;100537.84;;;14.83
67829;BMP280;54626;45.436;10.942;2024-03-08T13:44:36;100533.84;;;14.69
67829;BMP280;54626;45.436;10.942;2024-03-08T13:47:03;100530.81;;;14.75
67829;BMP280;54626;45.436;10.942;2024-03-08T13:49:33;100530.41;;;14.54
67829;BMP280;54626;45.436;10.942;2024-03-08T13:52:00;100530.28;;;14.37
67829;BMP280;54626;45.436;10.942;2024-03-08T13:54:26;100524.53;;;14.42
67829;BMP280;54626;45.436;10.942;2024-03-08T13:56:54;100519.75;;;14.67
67829;BMP280;54626;45.436;10.942;2024-03-08T13:59:22;100517.78;;;14.85
67829;BMP280;54626;45.436;10.942;2024-03-08T14:01:49;100514.03;;;14.58
67829;BMP280;54626;45.436;10.942;2024-03-08T14:04:15;100515.28;;;14.40